»·PEaware :: N213DS KVCV-KSDM

N213DS :: KVCV-KSDM

FLIGHT INFORMATION

Flight Status: Arrived
Operator: Privately registered:
United States
More flights under this callsign
Pilot: Robert D. (13877)
Aircraft: Diamond DA-40
(DA40)
More flights by this aircraft type
Origin: KVCV Socal Logistics
United States
Destination: KSDM Brown Mun
United States
More flights between these airports :: More routes between these airports
Route: CAPTZ V442 PDZ V186 PGY
File this flight plan on PilotEdge
Remarks:
Altitude:
(Current/Filed)
9,000ft
Speed:
(Current/Filed)
130kts
Departed: 19-Sep-20 02:50 PM
Arrived: 19-Sep-20 04:00 PM
Distance/Time
Traveled:
123nm/1:09
Distance/Time
To Go:
Arrived

Flight Plot

Page will automatically refresh every two minutes.

Flight plan parsing failed; only flown route is shown


Map Options




Map Legend


Flown Route
Filed Route
Departure Airport
Arrival Airport
Navaid (VOR, NDB)
Fix

Horizontal Profiles

Position Reports

Time Latitude Longitude Heading Altitude Ground
Speed
19-Sep-20 14:18 34.584421 -117.381284 315 2876ft 0kts
19-Sep-20 14:19 34.584421 -117.381284 315 2876ft 0kts
19-Sep-20 14:20 34.584421 -117.381284 315 2876ft 0kts
19-Sep-20 14:21 34.584421 -117.381284 315 2876ft 0kts
19-Sep-20 14:22 34.584421 -117.381284 315 2876ft 0kts
19-Sep-20 14:23 34.584421 -117.381284 315 2876ft 0kts
19-Sep-20 14:24 34.584421 -117.381284 315 2876ft 0kts
19-Sep-20 14:25 34.584421 -117.381284 315 2876ft 0kts
19-Sep-20 14:26 34.584421 -117.381284 315 2876ft 0kts
19-Sep-20 14:27 34.584421 -117.381284 315 2876ft 0kts
19-Sep-20 14:28 34.584421 -117.381284 315 2876ft 0kts
19-Sep-20 14:29 34.584421 -117.381284 315 2876ft 0kts
19-Sep-20 14:30 34.584421 -117.381284 315 2876ft 0kts
19-Sep-20 14:31 34.584421 -117.381284 315 2876ft 0kts
19-Sep-20 14:32 34.584421 -117.381284 315 2876ft 0kts
19-Sep-20 14:33 34.584421 -117.381284 315 2876ft 0kts
19-Sep-20 14:34 34.584421 -117.381284 315 2876ft 0kts
19-Sep-20 14:35 34.584421 -117.381284 315 2876ft 0kts
19-Sep-20 14:36 34.584421 -117.381284 315 2876ft 0kts
19-Sep-20 14:37 34.584421 -117.381284 315 2876ft 0kts
19-Sep-20 14:38 34.584421 -117.381284 315 2876ft 0kts
19-Sep-20 14:39 34.584421 -117.381284 315 2876ft 0kts
19-Sep-20 14:40 34.584421 -117.381284 315 2876ft 0kts
19-Sep-20 14:41 34.584481 -117.382013 268 2875ft 1kts
19-Sep-20 14:42 34.586591 -117.380248 44 2874ft 18kts
19-Sep-20 14:43 34.591097 -117.374914 44 2865ft 23kts
19-Sep-20 14:44 34.593223 -117.371879 85 2858ft 14kts
19-Sep-20 14:45 34.595885 -117.367335 12 2849ft 15kts
19-Sep-20 14:46 34.598952 -117.366627 8 2843ft 0kts
19-Sep-20 14:47 34.598952 -117.366627 8 2843ft 0kts
19-Sep-20 14:48 34.599023 -117.366617 6 2843ft 5kts
19-Sep-20 14:49 34.593424 -117.375108 218 3158ft 72kts
19-Sep-20 14:50 34.581006 -117.392848 253 4020ft 75kts
19-Sep-20 14:51 34.579725 -117.422515 261 4844ft 90kts
19-Sep-20 14:52 34.578620 -117.451895 261 5833ft 84kts
19-Sep-20 14:53 34.576810 -117.487576 261 6014ft 124kts
19-Sep-20 14:54 34.551428 -117.488505 159 6187ft 114kts
19-Sep-20 14:55 34.527670 -117.474843 158 7133ft 81kts
19-Sep-20 14:56 34.506890 -117.461021 157 7899ft 91kts
19-Sep-20 14:57 34.483918 -117.445269 157 8604ft 99kts
19-Sep-20 14:58 34.458246 -117.427760 156 9069ft 117kts
19-Sep-20 14:59 34.427123 -117.406534 155 9073ft 133kts
19-Sep-20 15:00 34.394818 -117.384495 155 9071ft 134kts
19-Sep-20 15:01 34.362102 -117.362234 155 9056ft 135kts
19-Sep-20 15:02 34.329048 -117.339765 156 9038ft 137kts
19-Sep-20 15:03 34.295546 -117.317010 156 9021ft 138kts
19-Sep-20 15:04 34.261953 -117.323267 210 9009ft 128kts
19-Sep-20 15:05 34.229919 -117.342472 210 8998ft 129kts
19-Sep-20 15:06 34.197837 -117.361832 210 8998ft 128kts
19-Sep-20 15:07 34.165845 -117.381122 210 8999ft 128kts
19-Sep-20 15:08 34.133857 -117.400395 210 8999ft 128kts
19-Sep-20 15:09 34.101941 -117.419608 210 8999ft 128kts
19-Sep-20 15:10 34.069947 -117.438753 210 8997ft 128kts
19-Sep-20 15:11 34.037902 -117.457967 210 8993ft 128kts
19-Sep-20 15:12 34.005960 -117.477147 210 8988ft 128kts
19-Sep-20 15:13 33.974151 -117.496227 210 9001ft 128kts
19-Sep-20 15:14 33.942269 -117.515344 211 8987ft 129kts
19-Sep-20 15:15 33.908756 -117.522479 148 8981ft 142kts
19-Sep-20 15:16 33.876683 -117.494446 151 8983ft 142kts
19-Sep-20 15:17 33.844103 -117.467185 150 8989ft 142kts
19-Sep-20 15:18 33.811483 -117.439890 150 8996ft 144kts
19-Sep-20 15:19 33.778311 -117.412136 150 9004ft 145kts
19-Sep-20 15:20 33.745126 -117.384386 150 9013ft 145kts
19-Sep-20 15:21 33.711836 -117.356581 150 9017ft 146kts
19-Sep-20 15:22 33.678498 -117.328761 150 9016ft 145kts
19-Sep-20 15:23 33.645400 -117.301167 150 9015ft 145kts
19-Sep-20 15:24 33.612412 -117.273693 150 9014ft 144kts
19-Sep-20 15:25 33.579467 -117.246282 150 9011ft 143kts
19-Sep-20 15:26 33.546923 -117.219229 150 9005ft 142kts
19-Sep-20 15:27 33.514456 -117.192267 150 9000ft 141kts
19-Sep-20 15:28 33.482097 -117.165419 150 8996ft 141kts
19-Sep-20 15:29 33.445859 -117.154647 174 8991ft 135kts
19-Sep-20 15:30 33.408695 -117.146620 174 8983ft 136kts
19-Sep-20 15:31 33.371120 -117.138618 174 8987ft 138kts
19-Sep-20 15:32 33.333106 -117.130565 174 8992ft 140kts
19-Sep-20 15:33 33.294391 -117.122370 174 8997ft 142kts
19-Sep-20 15:34 33.255692 -117.114183 174 9000ft 140kts
19-Sep-20 15:35 33.217214 -117.106053 174 9001ft 140kts
19-Sep-20 15:36 33.181409 -117.087240 151 9003ft 144kts
19-Sep-20 15:37 33.147695 -117.061400 151 9006ft 144kts
19-Sep-20 15:38 33.114196 -117.035402 151 9009ft 143kts
19-Sep-20 15:39 33.080977 -117.009435 151 9012ft 142kts
19-Sep-20 15:40 33.048150 -116.983892 151 9016ft 139kts
19-Sep-20 15:41 33.015833 -116.959176 151 9019ft 137kts
19-Sep-20 15:42 32.983550 -116.935185 151 9021ft 136kts
19-Sep-20 15:43 32.951168 -116.911979 151 8941ft 141kts
19-Sep-20 15:45 32.916292 -116.887380 151 8449ft 148kts
19-Sep-20 15:46 32.879739 -116.861526 151 7577ft 157kts
19-Sep-20 15:47 32.838689 -116.850720 181 6574ft 155kts
19-Sep-20 15:48 32.795515 -116.849862 181 5578ft 155kts
19-Sep-20 15:49 32.753298 -116.848628 181 4983ft 141kts
19-Sep-20 15:50 32.715371 -116.847295 181 4990ft 134kts
19-Sep-20 15:51 32.678178 -116.846038 181 4995ft 133kts
19-Sep-20 15:52 32.648235 -116.867790 221 4999ft 130kts
19-Sep-20 15:53 32.619147 -116.889770 206 4570ft 122kts
19-Sep-20 15:54 32.591731 -116.904679 207 3506ft 105kts
19-Sep-20 15:55 32.570157 -116.915009 206 2748ft 82kts
19-Sep-20 15:56 32.548909 -116.924146 209 1877ft 86kts
19-Sep-20 15:57 32.537580 -116.942958 270 913ft 62kts
19-Sep-20 15:58 32.544401 -116.957132 346 756ft 75kts
19-Sep-20 15:59 32.565010 -116.956449 337 1221ft 58kts
19-Sep-20 16:00 32.571841 -116.970130 273 506ft 34kts
19-Sep-20 16:00 32.571299 -116.974186 176 508ft 0kts
19-Sep-20 16:02 32.570111 -116.974738 221 508ft 0kts
19-Sep-20 16:03 32.570201 -116.979208 275 510ft 24kts
19-Sep-20 16:03 32.570444 -116.985979 283 517ft 0kts

Navigation Log

Ident Type
Flight plan parsing failed, navigation log unavailable